Time;durP1;ratioP1;P1;durP2;ratioP2;P2;SDS_P1;SDS_P2;PMS_P1;PMS_P2;Temp;Humidity;BMP_temperature;BMP_pressure;BME280_temperature;BME280_humidity;BME280_pressure;Samples;Min_cycle;Max_cycle;Signal;HPM_P1;HPM_P2
2021/07/07 00:00:11;;;;;;;;;4.00;2.25;;;;;25.30;43.29;100834.03;5013337;28;51032;-39
2021/07/07 00:02:37;;;;;;;;;2.25;2.25;;;;;25.29;43.16;100838.75;5013185;28;51349;-43
2021/07/07 00:05:04;;;;;;;;;2.50;2.50;;;;;25.30;43.08;100836.81;5014926;28;51055;-41
2021/07/07 00:07:30;;;;;;;;;2.00;2.00;;;;;25.28;42.97;100837.06;5013979;28;50977;-40
2021/07/07 00:09:55;;;;;;;;;3.25;2.00;;;;;25.28;43.27;100841.78;5013111;28;50944;-43
2021/07/07 00:12:21;;;;;;;;;3.00;3.00;;;;;25.28;43.16;100842.63;5014559;28;51491;-41
2021/07/07 00:14:46;;;;;;;;;4.00;2.00;;;;;25.27;43.37;100838.16;5014779;28;51174;-42
2021/07/07 00:17:11;;;;;;;;;1.50;1.50;;;;;25.27;43.08;100848.41;5014024;28;51076;-40
2021/07/07 00:19:37;;;;;;;;;1.50;1.00;;;;;25.27;43.10;100852.03;5012896;28;51747;-41
2021/07/07 00:22:03;;;;;;;;;2.00;2.00;;;;;25.27;43.30;100857.56;5012372;27;51102;-38
2021/07/07 00:24:28;;;;;;;;;3.50;2.00;;;;;25.27;43.21;100860.34;5013475;28;51270;-39
2021/07/07 00:26:53;;;;;;;;;2.25;2.25;;;;;25.28;43.28;100858.41;5016970;27;51114;-40
2021/07/07 00:29:19;;;;;;;;;2.00;2.00;;;;;25.27;43.47;100863.13;5019198;27;51121;-40
2021/07/07 00:31:45;;;;;;;;;2.00;2.00;;;;;25.27;43.64;100865.06;5014905;27;50875;-41
2021/07/07 00:34:10;;;;;;;;;4.25;2.75;;;;;25.27;43.49;100860.34;5016016;28;50989;-41
2021/07/07 00:36:36;;;;;;;;;2.25;2.25;;;;;25.27;43.44;100863.13;5013627;27;51297;-43
2021/07/07 00:39:03;;;;;;;;;1.75;1.75;;;;;25.28;43.24;100867.56;5016718;28;50950;-41
2021/07/07 00:41:29;;;;;;;;;1.00;1.00;;;;;25.26;42.62;100864.22;5012604;28;51166;-40
2021/07/07 00:43:55;;;;;;;;;3.50;1.25;;;;;25.25;42.20;100865.31;5012960;28;50991;-39
2021/07/07 00:46:20;;;;;;;;;4.25;2.25;;;;;25.24;41.74;100866.41;5014364;28;51030;-39
2021/07/07 00:48:46;;;;;;;;;1.50;1.50;;;;;25.20;41.78;100856.91;5012914;28;51848;-39
2021/07/07 00:51:14;;;;;;;;;4.75;3.00;;;;;25.18;41.63;100869.34;5017926;27;51085;-40
2021/07/07 00:53:40;;;;;;;;;4.00;2.75;;;;;25.16;41.43;100863.22;5027684;28;50905;-39
2021/07/07 00:56:07;;;;;;;;;2.00;2.00;;;;;25.13;41.42;100861.81;5014576;28;50991;-41
2021/07/07 00:58:34;;;;;;;;;2.75;2.75;;;;;25.11;41.45;100860.34;5012864;28;51197;-40
2021/07/07 01:01:03;;;;;;;;;2.00;2.00;;;;;25.08;41.24;100860.88;5012670;28;51322;-40
2021/07/07 01:03:28;;;;;;;;;7.00;2.25;;;;;25.06;41.09;100865.81;5014332;27;51058;-40
2021/07/07 01:05:54;;;;;;;;;4.00;1.75;;;;;25.02;40.96;100857.19;5017022;28;51272;-40
2021/07/07 01:08:19;;;;;;;;;4.00;2.00;;;;;25.00;40.79;100870.41;5011917;28;59830;-40
2021/07/07 01:10:44;;;;;;;;;3.00;2.75;;;;;24.98;41.14;100855.97;5012320;28;51247;-39
2021/07/07 01:13:12;;;;;;;;;2.25;2.00;;;;;24.96;41.19;100856.22;5012368;27;51294;-40
2021/07/07 01:15:40;;;;;;;;;2.00;2.00;;;;;24.94;40.98;100857.56;5017265;28;51118;-40
2021/07/07 01:18:06;;;;;;;;;1.50;1.00;;;;;24.92;41.52;100857.00;5024827;28;51553;-40
2021/07/07 01:20:31;;;;;;;;;1.75;1.75;;;;;24.90;41.31;100857.22;5037603;28;51264;-41
2021/07/07 01:22:57;;;;;;;;;2.50;2.00;;;;;24.88;40.87;100861.34;5011040;28;52054;-41
2021/07/07 01:25:23;;;;;;;;;3.00;3.00;;;;;24.85;41.13;100862.69;5012605;28;51014;-41
2021/07/07 01:27:48;;;;;;;;;4.00;2.50;;;;;24.84;41.27;100862.94;5018955;27;52343;-40
2021/07/07 01:30:17;;;;;;;;;3.75;3.00;;;;;24.81;40.68;100855.13;5012185;28;51057;-40
2021/07/07 01:32:44;;;;;;;;;2.25;2.25;;;;;24.79;41.00;100857.28;5014053;28;51028;-40
2021/07/07 01:35:10;;;;;;;;;3.25;2.75;;;;;24.76;41.11;100862.25;5016618;28;51196;-40
2021/07/07 01:37:35;;;;;;;;;3.75;2.00;;;;;24.75;41.04;100857.81;5012968;28;51147;-40
2021/07/07 01:40:01;;;;;;;;;4.00;4.00;;;;;24.73;40.88;100862.75;5013352;28;51095;-42
2021/07/07 01:42:26;;;;;;;;;2.00;2.00;;;;;24.72;41.05;100869.41;5027763;28;51259;-42
2021/07/07 01:44:52;;;;;;;;;2.50;2.50;;;;;24.69;41.28;100864.34;5012100;28;51186;-44
2021/07/07 01:47:17;;;;;;;;;4.50;2.00;;;;;24.69;40.89;100864.34;5012933;28;51802;-43
2021/07/07 01:49:42;;;;;;;;;3.75;2.50;;;;;24.67;40.84;100863.75;5015274;28;51023;-43
2021/07/07 01:52:08;;;;;;;;;4.75;2.75;;;;;24.65;41.15;100865.94;5014678;28;51139;-41
2021/07/07 01:54:33;;;;;;;;;2.75;2.25;;;;;24.63;40.96;100865.34;5014805;28;51016;-40
2021/07/07 01:56:58;;;;;;;;;3.75;2.00;;;;;24.62;40.98;100868.38;5017202;28;51062;-40
2021/07/07 01:59:24;;;;;;;;;3.00;2.50;;;;;24.61;41.38;100869.47;5029260;28;50984;-41
2021/07/07 02:01:50;;;;;;;;;3.25;3.25;;;;;24.59;41.00;100871.63;5023204;28;51011;-43
2021/07/07 02:04:15;;;;;;;;;2.25;2.00;;;;;24.57;40.75;100865.50;5019899;28;50940;-42
2021/07/07 02:06:41;;;;;;;;;1.75;1.50;;;;;24.55;41.01;100864.91;5017958;28;51769;-43
2021/07/07 02:09:07;;;;;;;;;3.00;3.00;;;;;24.53;41.09;100858.78;5033111;27;51208;-44
2021/07/07 02:11:35;;;;;;;;;2.50;2.00;;;;;24.52;41.38;100857.13;5017757;28;51145;-43
2021/07/07 02:14:00;;;;;;;;;2.00;2.00;;;;;24.51;41.58;100856.28;5018455;27;51024;-42
2021/07/07 02:16:25;;;;;;;;;3.00;3.00;;;;;24.49;41.37;100852.91;5032493;28;51770;-46
2021/07/07 02:18:51;;;;;;;;;2.25;2.25;;;;;24.47;41.34;100855.91;5016998;28;51090;-41
2021/07/07 02:21:16;;;;;;;;;3.00;3.00;;;;;24.45;41.42;100862.78;5016329;28;51681;-41
2021/07/07 02:23:42;;;;;;;;;1.50;1.25;;;;;24.43;41.29;100857.50;5017994;27;51411;-40
2021/07/07 02:26:07;;;;;;;;;3.00;1.50;;;;;24.43;41.36;100860.28;5015203;28;51925;-39
2021/07/07 02:28:32;;;;;;;;;1.75;1.75;;;;;24.42;41.46;100864.13;5021469;27;51176;-41
2021/07/07 02:30:58;;;;;;;;;7.75;4.00;;;;;24.40;41.42;100855.25;5014523;28;51126;-43
2021/07/07 02:33:25;;;;;;;;;3.00;2.00;;;;;24.39;41.25;100856.34;5017606;28;50872;-42
2021/07/07 02:35:51;;;;;;;;;2.00;2.00;;;;;24.37;41.44;100863.19;5010542;28;52189;-42
2021/07/07 02:38:21;;;;;;;;;0.75;0.50;;;;;24.35;41.71;100863.44;5015097;28;51023;-42
2021/07/07 02:40:49;;;;;;;;;3.25;1.50;;;;;24.34;41.50;100860.91;5015279;28;51063;-41
2021/07/07 02:43:14;;;;;;;;;3.00;3.00;;;;;24.34;41.39;100872.00;5014577;27;51386;-42
2021/07/07 02:45:41;;;;;;;;;3.00;3.00;;;;;24.33;41.33;100873.94;5015102;27;51957;-41
2021/07/07 02:48:07;;;;;;;;;4.00;3.50;;;;;24.32;41.59;100868.66;5017180;28;51339;-41
2021/07/07 02:50:34;;;;;;;;;3.75;1.00;;;;;24.31;41.79;100872.50;5014091;27;51405;-41
2021/07/07 02:52:59;;;;;;;;;2.00;2.00;;;;;24.29;41.80;100864.41;5025471;28;51300;-40
2021/07/07 02:55:25;;;;;;;;;3.00;2.00;;;;;24.28;41.39;100875.72;5029408;28;51798;-41
2021/07/07 02:58:05;;;;;;;;;2.50;2.00;;;;;24.28;41.77;100875.72;5014512;28;51156;-51
2021/07/07 03:00:41;;;;;;;;;3.00;3.00;;;;;24.26;41.76;100883.44;5014000;27;50952;-42
2021/07/07 03:03:13;;;;;;;;;3.50;2.00;;;;;24.24;42.08;100877.31;5015906;28;51114;-41
2021/07/07 03:05:44;;;;;;;;;2.00;2.00;;;;;24.24;41.71;100888.38;5018407;28;51958;-41
2021/07/07 03:08:12;;;;;;;;;2.00;2.00;;;;;24.23;42.25;100882.00;5018014;28;51049;-42
2021/07/07 03:10:41;;;;;;;;;2.50;2.50;;;;;24.21;41.91;100886.94;5034078;28;50988;-43
2021/07/07 03:13:09;;;;;;;;;2.50;1.25;;;;;24.21;41.78;100877.81;5014435;28;51357;-41
2021/07/07 03:15:37;;;;;;;;;2.00;2.00;;;;;24.19;42.16;100878.91;5014549;28;51051;-43
2021/07/07 03:18:04;;;;;;;;;3.00;3.00;;;;;24.19;42.00;100886.34;5013711;27;51227;-41
2021/07/07 03:20:29;;;;;;;;;5.00;3.25;;;;;24.17;41.82;100894.88;5014007;28;51044;-41
2021/07/07 03:22:55;;;;;;;;;5.75;2.00;;;;;24.18;41.88;100895.75;5014916;28;51325;-40
2021/07/07 03:25:20;;;;;;;;;3.00;2.00;;;;;24.17;42.25;100889.34;5014430;28;51976;-41
2021/07/07 03:27:48;;;;;;;;;2.75;1.00;;;;;24.16;42.12;100893.19;5021120;27;50975;-41
2021/07/07 03:30:14;;;;;;;;;3.00;3.00;;;;;24.16;42.07;100900.66;5014922;27;51212;-40
2021/07/07 03:32:39;;;;;;;;;1.00;1.00;;;;;24.15;41.98;100899.00;5013881;28;50948;-40
2021/07/07 03:35:05;;;;;;;;;3.25;2.00;;;;;24.15;42.00;100899.00;5019714;28;51416;-41
2021/07/07 03:37:31;;;;;;;;;4.75;3.75;;;;;24.12;41.96;100892.03;5017827;28;51477;-40
2021/07/07 03:39:56;;;;;;;;;2.25;2.25;;;;;24.10;42.33;100894.19;5014325;27;51124;-40
2021/07/07 03:42:21;;;;;;;;;2.00;2.00;;;;;24.09;42.41;100895.28;5014350;28;51130;-40
2021/07/07 03:44:47;;;;;;;;;3.00;2.75;;;;;24.09;42.34;100889.75;5013292;28;51198;-41
2021/07/07 03:47:12;;;;;;;;;3.50;2.50;;;;;24.08;42.30;100899.16;5014172;28;51166;-41
2021/07/07 03:49:38;;;;;;;;;3.25;3.00;;;;;24.08;42.15;100907.44;5013670;28;51204;-41
2021/07/07 03:52:04;;;;;;;;;4.25;3.50;;;;;24.07;42.20;100903.00;5014136;28;51068;-41
2021/07/07 03:54:30;;;;;;;;;1.00;1.00;;;;;24.06;42.67;100909.59;5012192;28;51883;-40
2021/07/07 03:56:55;;;;;;;;;3.50;2.25;;;;;24.04;42.44;100911.78;5015222;28;51095;-40
2021/07/07 03:59:21;;;;;;;;;2.00;2.00;;;;;24.05;42.46;100909.84;5016183;28;51222;-41
2021/07/07 04:01:47;;;;;;;;;2.25;2.25;;;;;24.03;42.30;100915.63;5013258;28;51095;-43
2021/07/07 04:04:13;;;;;;;;;2.00;2.00;;;;;24.03;42.41;100912.88;5014329;28;51750;-43
2021/07/07 04:06:39;;;;;;;;;5.00;4.00;;;;;24.02;42.42;100913.94;5015241;27;51201;-43
2021/07/07 04:09:04;;;;;;;;;3.25;1.50;;;;;24.02;42.29;100922.25;5016133;28;51015;-43
2021/07/07 04:11:30;;;;;;;;;3.75;3.00;;;;;24.02;42.35;100922.25;5015407;28;51088;-44
2021/07/07 04:13:55;;;;;;;;;3.00;3.00;;;;;24.00;42.76;100916.13;5013480;28;50926;-42
2021/07/07 04:16:20;;;;;;;;;3.00;3.00;;;;;24.00;42.80;100921.66;5028963;28;51160;-42
2021/07/07 04:18:46;;;;;;;;;3.25;2.25;;;;;24.00;42.61;100929.97;5014572;28;51048;-41
2021/07/07 04:21:11;;;;;;;;;3.00;3.00;;;;;23.99;42.98;100932.97;5026195;28;51038;-42
2021/07/07 04:23:36;;;;;;;;;5.00;4.00;;;;;23.99;42.89;100933.81;5023449;28;51037;-44
2021/07/07 04:26:02;;;;;;;;;3.00;3.00;;;;;23.99;42.62;100927.44;5017770;28;51197;-43
2021/07/07 04:28:27;;;;;;;;;5.00;3.00;;;;;23.98;42.81;100932.13;5028028;27;51043;-43
2021/07/07 04:30:53;;;;;;;;;4.50;3.00;;;;;23.96;42.85;100939.81;5027361;28;50584;-41
2021/07/07 04:33:18;;;;;;;;;1.25;1.00;;;;;23.96;42.80;100944.50;5015016;28;50900;-41
2021/07/07 04:35:43;;;;;;;;;2.00;2.00;;;;;23.94;42.62;100947.53;5012438;28;51110;-42
2021/07/07 04:38:09;;;;;;;;;3.50;3.00;;;;;23.94;43.05;100961.34;5014648;28;51227;-41
2021/07/07 04:40:34;;;;;;;;;2.75;2.75;;;;;23.94;42.87;100957.75;5018137;28;50907;-41
2021/07/07 04:42:59;;;;;;;;;3.25;3.25;;;;;23.93;42.95;100951.38;5014046;28;50936;-41
2021/07/07 04:45:25;;;;;;;;;3.00;2.25;;;;;23.92;43.04;100952.47;5014091;28;51116;-39
2021/07/07 04:47:50;;;;;;;;;2.50;2.50;;;;;23.92;42.85;100951.63;5012871;28;51098;-39
2021/07/07 04:50:20;;;;;;;;;5.00;4.00;;;;;23.90;42.70;100960.16;5012309;28;51313;-40
2021/07/07 04:52:45;;;;;;;;;2.25;2.25;;;;;23.91;42.85;100961.84;5012600;28;51987;-40
2021/07/07 04:55:14;;;;;;;;;2.25;2.25;;;;;23.94;43.06;100963.28;5012928;28;50952;-39
2021/07/07 04:57:42;;;;;;;;;2.50;2.50;;;;;23.94;43.14;100960.50;5012941;27;51210;-40
2021/07/07 05:00:15;;;;;;;;;6.50;3.50;;;;;23.96;42.94;100972.19;5013173;28;50864;-39
2021/07/07 05:02:44;;;;;;;;;2.00;2.00;;;;;23.97;43.15;100971.97;5012586;28;50994;-43
2021/07/07 05:05:11;;;;;;;;;3.50;3.50;;;;;23.98;43.57;100973.63;5011948;28;51291;-42
2021/07/07 05:07:37;;;;;;;;;3.50;2.50;;;;;23.99;43.34;100978.09;5012696;28;51236;-45
2021/07/07 05:10:04;;;;;;;;;1.50;1.50;;;;;24.01;43.38;100973.16;5016870;28;51250;-46
2021/07/07 05:12:29;;;;;;;;;5.00;3.00;;;;;24.02;43.75;100968.44;5017806;28;51057;-46
2021/07/07 05:14:55;;;;;;;;;5.75;3.00;;;;;24.03;43.69;100976.50;5011669;28;51050;-47
2021/07/07 05:17:22;;;;;;;;;4.50;4.25;;;;;24.05;44.08;100976.25;5012908;28;51031;-45
2021/07/07 05:19:47;;;;;;;;;4.25;2.75;;;;;24.07;43.70;100986.03;5013517;28;51042;-47
2021/07/07 05:22:13;;;;;;;;;4.50;3.75;;;;;24.06;43.63;100981.53;5013661;28;51019;-45
2021/07/07 05:24:39;;;;;;;;;4.25;2.75;;;;;24.06;43.46;100991.78;5017233;28;51067;-51
2021/07/07 05:27:04;;;;;;;;;4.00;4.00;;;;;24.05;43.81;100984.56;5025616;27;51183;-44
2021/07/07 05:29:30;;;;;;;;;3.75;3.50;;;;;24.03;43.52;100989.50;5016260;27;51263;-43
2021/07/07 05:31:55;;;;;;;;;5.00;3.75;;;;;24.02;43.20;100988.66;5017663;27;51317;-43
2021/07/07 05:34:20;;;;;;;;;4.25;4.25;;;;;24.01;43.71;100980.59;5032555;27;50456;-44
2021/07/07 05:36:46;;;;;;;;;7.75;6.00;;;;;24.02;43.47;100985.06;5019255;27;51194;-42
2021/07/07 05:39:12;;;;;;;;;4.00;3.00;;;;;24.01;43.50;100989.75;5013476;28;51188;-44
2021/07/07 05:41:37;;;;;;;;;7.25;4.00;;;;;24.01;44.14;100986.97;5031846;27;52862;-44
2021/07/07 05:44:03;;;;;;;;;5.50;4.00;;;;;24.03;44.57;100986.72;5021629;27;51129;-46
2021/07/07 05:46:28;;;;;;;;;2.50;2.00;;;;;24.03;44.58;100984.81;5025764;27;51091;-42
2021/07/07 05:48:53;;;;;;;;;4.00;4.00;;;;;24.05;44.94;100988.16;5011225;28;51131;-42
2021/07/07 05:51:19;;;;;;;;;4.00;2.75;;;;;24.07;45.04;100999.84;5017297;27;51193;-42
2021/07/07 05:53:44;;;;;;;;;3.00;3.00;;;;;24.09;45.40;100991.31;5015794;28;51038;-41
2021/07/07 05:56:09;;;;;;;;;5.25;4.00;;;;;24.10;45.18;100993.84;5014269;28;52273;-46
2021/07/07 05:58:35;;;;;;;;;5.50;2.50;;;;;24.13;45.54;100998.03;5011038;28;51538;-42
2021/07/07 06:01:01;;;;;;;;;5.00;5.00;;;;;24.14;45.45;100995.00;5014997;27;51125;-42
2021/07/07 06:03:27;;;;;;;;;7.50;4.00;;;;;24.17;45.55;100999.22;5016682;28;51150;-42
2021/07/07 06:05:52;;;;;;;;;4.50;4.00;;;;;24.18;45.02;101001.78;5019777;28;50936;-44
2021/07/07 06:08:17;;;;;;;;;5.75;5.50;;;;;24.19;45.35;101000.69;5017347;28;51068;-43
2021/07/07 06:10:45;;;;;;;;;4.00;4.00;;;;;24.22;45.58;101004.03;5016411;28;51732;-45
2021/07/07 06:13:11;;;;;;;;;5.50;4.00;;;;;24.23;45.99;101009.31;5017062;28;51423;-44
2021/07/07 06:15:37;;;;;;;;;6.00;4.50;;;;;24.24;45.72;101012.94;5014601;28;51237;-42
2021/07/07 06:18:06;;;;;;;;;4.00;4.00;;;;;24.26;45.81;101014.38;5013907;28;51270;-43
2021/07/07 06:20:33;;;;;;;;;5.00;5.00;;;;;24.26;45.70;101016.28;5036489;27;51874;-42
2021/07/07 06:22:59;;;;;;;;;5.25;5.00;;;;;24.28;45.73;101017.75;5075442;27;51358;-41
2021/07/07 06:25:25;;;;;;;;;6.25;4.00;;;;;24.29;45.74;101013.06;5044594;27;51169;-40
2021/07/07 06:27:51;;;;;;;;;5.50;5.50;;;;;24.30;45.68;101017.50;5073991;27;51138;-40
2021/07/07 06:30:19;;;;;;;;;4.75;4.75;;;;;24.31;45.85;101014.53;5015291;27;52033;-41
2021/07/07 06:32:47;;;;;;;;;4.75;3.75;;;;;24.32;45.77;101018.97;5012246;27;51168;-42
2021/07/07 06:35:14;;;;;;;;;8.00;4.25;;;;;24.34;45.97;101016.78;5015382;27;52596;-41
2021/07/07 06:37:40;;;;;;;;;7.25;4.00;;;;;24.36;46.19;101020.16;5018519;27;51065;-41
2021/07/07 06:40:08;;;;;;;;;6.50;5.00;;;;;24.40;45.93;101018.59;5015983;28;52975;-40
2021/07/07 06:42:33;;;;;;;;;5.00;4.25;;;;;24.42;46.33;101023.88;5020203;28;51363;-42
2021/07/07 06:44:59;;;;;;;;;8.50;4.50;;;;;24.46;46.27;101025.91;5029671;27;51209;-42
2021/07/07 06:47:25;;;;;;;;;5.25;3.50;;;;;24.51;46.24;101027.97;5044624;27;50856;-40
2021/07/07 06:49:50;;;;;;;;;7.00;6.50;;;;;24.55;46.19;101020.84;5013930;28;50967;-40
2021/07/07 06:52:16;;;;;;;;;8.00;6.00;;;;;24.58;46.00;101036.13;5020921;27;51237;-44
2021/07/07 06:54:42;;;;;;;;;6.50;5.00;;;;;24.60;45.72;101029.25;5028773;27;51269;-39
2021/07/07 06:57:09;;;;;;;;;5.00;4.25;;;;;24.64;45.98;101038.75;5012005;28;51072;-39
2021/07/07 06:59:34;;;;;;;;;5.75;5.75;;;;;24.67;45.90;101041.03;5022627;27;51110;-39
2021/07/07 07:02:00;;;;;;;;;9.75;5.75;;;;;24.69;45.66;101036.06;5012448;28;51224;-42
2021/07/07 07:04:26;;;;;;;;;7.50;5.00;;;;;24.73;45.19;101041.97;5013790;28;50998;-50
2021/07/07 07:06:52;;;;;;;;;5.00;5.00;;;;;24.75;45.43;101040.66;5013772;28;51061;-40
2021/07/07 07:09:17;;;;;;;;;6.25;4.50;;;;;24.78;45.31;101039.31;5015288;27;51997;-41
2021/07/07 07:11:43;;;;;;;;;5.00;4.25;;;;;24.81;44.90;101044.38;5018342;27;50976;-41
2021/07/07 07:14:08;;;;;;;;;7.75;4.00;;;;;24.84;45.22;101049.41;5015623;28;51207;-42
2021/07/07 07:16:34;;;;;;;;;5.25;4.75;;;;;24.87;45.14;101050.84;5016083;28;51178;-41
2021/07/07 07:19:00;;;;;;;;;6.25;4.00;;;;;24.91;44.92;101054.81;5013043;28;51774;-41
2021/07/07 07:21:25;;;;;;;;;5.00;5.00;;;;;24.93;44.77;101058.19;5013570;28;50963;-41
2021/07/07 07:23:50;;;;;;;;;7.75;5.25;;;;;24.94;44.69;101055.16;5014369;28;50872;-42
2021/07/07 07:26:16;;;;;;;;;4.75;4.75;;;;;24.94;44.70;101063.47;5017904;28;50865;-42
2021/07/07 07:28:42;;;;;;;;;6.00;5.25;;;;;24.95;44.26;101061.53;5059083;27;52099;-41
2021/07/07 07:31:08;;;;;;;;;5.50;4.00;;;;;24.95;44.58;101067.06;5021319;28;51020;-42
2021/07/07 07:33:33;;;;;;;;;4.00;4.00;;;;;24.98;44.32;101069.34;5019633;28;51059;-43
2021/07/07 07:35:59;;;;;;;;;6.50;5.75;;;;;25.00;44.21;101069.94;5015988;28;51306;-41
2021/07/07 07:39:08;;;;;;;;;6.00;5.00;;;;;25.02;44.30;101073.34;5017751;28;50986;-41
2021/07/07 07:41:14;;;;;;;;;5.00;4.50;;;;;25.05;44.52;101078.41;5012671;27;51858;-41
2021/07/07 07:43:39;;;;;;;;;5.25;5.00;;;;;25.07;44.11;101081.75;5013880;28;51318;-41
2021/07/07 07:46:05;;;;;;;;;4.00;4.00;;;;;25.07;44.37;101079.00;5013867;28;51341;-41
2021/07/07 07:48:31;;;;;;;;;4.00;4.00;;;;;25.08;44.32;101080.66;5016622;28;51361;-41
2021/07/07 07:50:56;;;;;;;;;5.00;5.00;;;;;25.08;43.96;101086.22;5016432;28;50937;-41
2021/07/07 07:53:22;;;;;;;;;3.50;3.00;;;;;25.08;44.14;101086.22;5032303;28;50422;-41
2021/07/07 07:55:48;;;;;;;;;7.50;6.00;;;;;25.09;43.85;101082.34;5014541;27;50904;-41
2021/07/07 07:58:18;;;;;;;;;4.75;4.75;;;;;25.09;44.01;101082.34;5014887;28;51149;-40
2021/07/07 08:00:45;;;;;;;;;5.50;5.00;;;;;25.10;43.77;101086.78;5016289;28;50914;-41
2021/07/07 08:03:11;;;;;;;;;5.25;5.25;;;;;25.11;43.86;101085.69;5018176;27;51075;-40
2021/07/07 08:05:36;;;;;;;;;3.00;3.00;;;;;25.11;43.71;101088.47;5019648;28;50899;-40
2021/07/07 08:08:02;;;;;;;;;5.25;4.75;;;;;25.12;43.81;101087.41;5014439;28;51817;-41
2021/07/07 08:10:28;;;;;;;;;7.25;5.50;;;;;25.12;43.54;101089.34;5014257;28;51881;-41
2021/07/07 08:12:54;;;;;;;;;4.75;4.50;;;;;25.11;43.80;101096.78;5014048;28;51435;-41
2021/07/07 08:15:20;;;;;;;;;4.00;3.50;;;;;25.12;43.40;101101.28;5014767;28;51433;-41
2021/07/07 08:17:46;;;;;;;;;5.50;5.50;;;;;25.14;43.62;101104.63;5016752;28;51095;-41
2021/07/07 08:20:12;;;;;;;;;4.75;4.75;;;;;25.16;43.47;101108.00;5016930;28;51429;-41
2021/07/07 08:22:38;;;;;;;;;5.25;5.25;;;;;25.17;43.08;101109.69;5014252;28;51114;-41
2021/07/07 08:25:06;;;;;;;;;8.25;5.00;;;;;25.17;43.20;101112.44;5013233;28;51015;-41
2021/07/07 08:27:32;;;;;;;;;5.00;5.00;;;;;25.16;43.05;101108.00;5045228;27;52059;-41
2021/07/07 08:29:57;;;;;;;;;6.25;5.00;;;;;25.17;43.15;101112.44;5017818;27;51015;-41
2021/07/07 08:32:23;;;;;;;;;6.00;5.50;;;;;25.18;43.00;101113.28;5017001;28;50936;-42
2021/07/07 08:34:48;;;;;;;;;5.75;5.75;;;;;25.19;42.82;101112.19;5015476;28;51213;-43
2021/07/07 08:37:14;;;;;;;;;4.50;4.50;;;;;25.21;42.89;101118.31;5013987;28;57033;-41
2021/07/07 08:39:41;;;;;;;;;6.00;4.50;;;;;25.22;42.83;101120.88;5013406;28;51488;-41
2021/07/07 08:42:06;;;;;;;;;6.00;6.00;;;;;25.22;42.67;101120.88;5013616;28;51095;-41
2021/07/07 08:44:32;;;;;;;;;4.25;3.50;;;;;25.23;42.53;101118.94;5028941;28;51267;-41
2021/07/07 08:46:58;;;;;;;;;6.50;5.50;;;;;25.23;42.60;101122.56;5014174;28;51011;-41
2021/07/07 08:49:23;;;;;;;;;4.25;3.50;;;;;25.22;42.59;101126.44;5017574;28;50894;-41
2021/07/07 08:51:49;;;;;;;;;6.00;5.00;;;;;25.23;42.36;101119.78;5038431;28;50451;-41
2021/07/07 08:54:17;;;;;;;;;6.00;5.25;;;;;25.24;42.37;101126.16;5016996;28;51258;-41
2021/07/07 08:56:43;;;;;;;;;3.00;3.00;;;;;25.23;42.39;101124.50;5017722;27;51015;-41
2021/07/07 08:59:10;;;;;;;;;3.00;3.00;;;;;25.21;42.43;101127.50;5035003;27;50474;-40
2021/07/07 09:02:02;;;;;;;;;3.75;3.75;;;;;25.22;42.13;101126.44;5017141;28;51059;-41
2021/07/07 09:04:33;;;;;;;;;6.00;5.25;;;;;25.22;42.51;101118.09;5017517;28;50821;-41
2021/07/07 09:07:00;;;;;;;;;3.25;3.25;;;;;25.22;42.25;101120.88;5019224;28;50875;-42
2021/07/07 09:09:50;;;;;;;;;6.00;6.00;;;;;25.24;42.23;101131.72;5017706;28;50924;-41
2021/07/07 09:12:29;;;;;;;;;5.00;4.50;;;;;25.23;42.35;101128.09;5019251;28;51108;-41
2021/07/07 09:15:05;;;;;;;;;5.25;4.25;;;;;25.22;42.10;101131.97;5016300;28;50894;-40
2021/07/07 09:17:42;;;;;;;;;7.00;4.25;;;;;25.24;42.01;101128.94;5016523;27;52431;-41
2021/07/07 09:20:30;;;;;;;;;4.50;4.50;;;;;25.23;42.00;101125.34;5017974;28;50995;-41
2021/07/07 09:23:15;;;;;;;;;5.00;5.00;;;;;25.23;41.78;101125.34;5017581;27;51022;-45
2021/07/07 09:25:53;;;;;;;;;6.00;6.00;;;;;25.23;41.99;101130.88;5019139;28;51072;-41
2021/07/07 09:28:32;;;;;;;;;3.75;3.75;;;;;25.23;42.39;101128.09;5045133;27;51812;-41
2021/07/07 09:31:04;;;;;;;;;5.50;5.50;;;;;25.23;41.92;101139.19;5015606;28;51154;-41
2021/07/07 09:33:42;;;;;;;;;7.50;5.50;;;;;25.24;41.86;101132.56;5018656;28;50818;-40
2021/07/07 09:36:23;;;;;;;;;5.00;4.75;;;;;25.23;42.04;101133.66;5016368;28;50975;-41
2021/07/07 09:38:50;;;;;;;;;6.00;5.25;;;;;25.23;41.91;101147.50;5017562;28;51903;-40
2021/07/07 09:41:16;;;;;;;;;5.50;5.50;;;;;25.21;42.11;101144.13;5016697;28;51137;-40
2021/07/07 09:44:08;;;;;;;;;5.00;5.00;;;;;25.21;42.01;101144.13;5016005;28;50989;-40
2021/07/07 09:46:38;;;;;;;;;6.50;6.00;;;;;25.20;42.07;101142.44;5018236;28;51262;-40
2021/07/07 09:49:04;;;;;;;;;5.25;5.25;;;;;25.22;41.85;101144.97;5015373;27;51792;-40
2021/07/07 09:51:32;;;;;;;;;7.75;6.75;;;;;25.22;41.69;101145.84;5018819;28;51326;-40
2021/07/07 09:54:00;;;;;;;;;5.00;5.00;;;;;25.23;41.60;101147.50;5022693;27;51149;-41
2021/07/07 09:56:25;;;;;;;;;5.50;5.50;;;;;25.23;41.80;101138.34;5018008;28;50935;-40
2021/07/07 09:58:51;;;;;;;;;9.25;7.25;;;;;25.23;41.78;101147.50;5014443;28;51987;-41
2021/07/07 10:01:16;;;;;;;;;5.00;5.00;;;;;25.23;41.91;101143.91;5015514;28;51148;-40
2021/07/07 10:03:42;;;;;;;;;7.75;5.00;;;;;25.22;41.46;101140.28;5036082;27;51064;-40
2021/07/07 10:06:08;;;;;;;;;8.25;8.25;;;;;25.22;42.05;101139.41;5025466;28;50902;-40
2021/07/07 10:08:34;;;;;;;;;5.75;5.00;;;;;25.21;41.72;101141.34;5016667;27;51109;-40
2021/07/07 10:11:00;;;;;;;;;7.00;5.50;;;;;25.21;41.88;101149.66;5018090;28;51115;-40
2021/07/07 10:13:26;;;;;;;;;7.00;7.00;;;;;25.22;41.96;101147.72;5024436;28;51283;-40
2021/07/07 10:15:53;;;;;;;;;8.75;5.25;;;;;25.20;41.55;101134.13;5017287;27;51137;-40
2021/07/07 10:18:18;;;;;;;;;6.00;5.00;;;;;25.19;41.72;101143.53;5016952;28;51706;-43
2021/07/07 10:20:44;;;;;;;;;6.25;6.25;;;;;25.18;41.95;101147.41;5016084;28;51057;-40
2021/07/07 10:23:11;;;;;;;;;5.75;5.75;;;;;25.18;41.96;101144.63;5015186;27;51007;-40
2021/07/07 10:25:37;;;;;;;;;9.00;6.00;;;;;25.18;42.42;101143.78;5016977;28;51122;-40
2021/07/07 10:28:07;;;;;;;;;6.00;4.50;;;;;25.18;42.11;101146.56;5054344;27;52089;-40
2021/07/07 10:30:51;;;;;;;;;7.50;6.75;;;;;25.17;42.56;101140.16;5014178;28;51186;-40
2021/07/07 10:33:18;;;;;;;;;6.50;5.50;;;;;25.17;42.47;101140.16;5011653;28;51301;-40
2021/07/07 10:35:44;;;;;;;;;7.00;6.25;;;;;25.16;42.51;101134.88;5018440;28;52522;-40
2021/07/07 10:38:10;;;;;;;;;7.50;5.25;;;;;25.16;42.83;101130.16;5013795;27;51943;-40
2021/07/07 10:40:41;;;;;;;;;9.75;5.75;;;;;25.15;42.68;101139.59;5012702;27;52385;-39
2021/07/07 10:43:07;;;;;;;;;7.75;7.00;;;;;25.15;42.90;101136.81;5010484;28;52406;-39
2021/07/07 10:45:43;;;;;;;;;5.75;5.75;;;;;25.15;42.50;101134.03;5013669;27;52308;-38
2021/07/07 10:48:31;;;;;;;;;8.25;7.00;;;;;25.16;42.70;101132.09;5020462;27;51845;-40
2021/07/07 10:51:21;;;;;;;;;6.50;6.50;;;;;25.15;42.70;101145.13;5010752;27;50968;-40
2021/07/07 10:53:47;;;;;;;;;7.25;6.25;;;;;25.16;42.47;101140.41;5033897;27;51259;-40
2021/07/07 10:56:12;;;;;;;;;7.00;5.75;;;;;25.16;42.94;101137.66;5012764;28;51485;-40
2021/07/07 10:58:40;;;;;;;;;8.00;6.50;;;;;25.17;42.82;101137.41;5011836;28;51219;-41
2021/07/07 11:01:37;;;;;;;;;8.25;7.00;;;;;25.18;42.99;101133.53;5012937;28;50929;-41
2021/07/07 11:04:04;;;;;;;;;6.75;5.75;;;;;25.19;43.13;101142.69;5011149;28;51013;-41
2021/07/07 11:06:37;;;;;;;;;6.25;6.25;;;;;25.21;43.04;101138.56;5013511;28;51133;-41
2021/07/07 11:09:08;;;;;;;;;6.00;6.00;;;;;25.21;43.17;101138.56;5020670;28;51894;-42
2021/07/07 11:11:35;;;;;;;;;9.00;7.00;;;;;25.21;43.25;101152.44;5018223;28;51011;-40
2021/07/07 11:14:10;;;;;;;;;7.00;7.00;;;;;25.23;43.09;101158.59;5014542;28;51170;-40
2021/07/07 11:16:45;;;;;;;;;10.00;9.00;;;;;25.25;43.18;101150.03;5029278;28;50962;-40
2021/07/07 11:19:38;;;;;;;;;10.50;9.50;;;;;25.24;43.26;101143.66;5010543;28;51755;-40
2021/07/07 11:22:04;;;;;;;;;14.00;10.25;;;;;25.25;42.93;101153.66;5004975;28;51248;-40
2021/07/07 11:24:29;;;;;;;;;12.75;10.00;;;;;25.25;42.78;101148.09;5013585;28;52032;-40